Time;durP1;ratioP1;P1;durP2;ratioP2;P2;SDS_P1;SDS_P2;PMS_P1;PMS_P2;Temp;Humidity;BMP_temperature;BMP_pressure;BME280_temperature;BME280_humidity;BME280_pressure;Samples;Min_cycle;Max_cycle;Signal;HPM_P1;HPM_P2
2023/05/08 00:00:05;;;;;;;3.98;3.67;;;18.40;90.50;;;;;;936869;152;27393;-76
2023/05/08 00:02:31;;;;;;;4.15;3.75;;;18.40;90.60;;;;;;937874;152;27377;-76
2023/05/08 00:04:58;;;;;;;3.35;3.15;;;18.40;90.50;;;;;;937619;150;27462;-76
2023/05/08 00:07:24;;;;;;;3.98;3.10;;;18.40;90.50;;;;;;936751;150;27362;-76
2023/05/08 00:09:51;;;;;;;3.60;3.30;;;18.30;90.10;;;;;;937036;150;27385;-76
2023/05/08 00:12:18;;;;;;;3.95;3.67;;;18.30;90.10;;;;;;931261;150;27428;-76
2023/05/08 00:14:44;;;;;;;3.47;3.25;;;18.30;90.20;;;;;;930161;151;27404;-76
2023/05/08 00:17:11;;;;;;;3.70;3.40;;;18.30;90.30;;;;;;930363;151;27312;-76
2023/05/08 00:19:37;;;;;;;4.30;4.00;;;18.30;90.30;;;;;;929130;150;27802;-76
2023/05/08 00:22:04;;;;;;;3.75;3.45;;;18.30;90.40;;;;;;930437;151;27342;-76
2023/05/08 00:24:31;;;;;;;3.55;3.25;;;18.30;90.40;;;;;;930370;151;27492;-76
2023/05/08 00:26:57;;;;;;;4.15;3.47;;;18.20;90.40;;;;;;930282;151;27330;-76
2023/05/08 00:29:24;;;;;;;3.62;3.33;;;18.20;90.40;;;;;;930075;151;27620;-76
2023/05/08 00:31:50;;;;;;;3.47;3.17;;;18.30;90.30;;;;;;930101;151;27377;-76
2023/05/08 00:34:17;;;;;;;4.00;3.70;;;18.20;90.00;;;;;;930154;151;27397;-76
2023/05/08 00:36:44;;;;;;;3.95;3.65;;;18.20;89.80;;;;;;930718;151;27373;-76
2023/05/08 00:39:11;;;;;;;5.12;3.40;;;18.20;89.50;;;;;;930077;151;27399;-76
2023/05/08 00:41:37;;;;;;;4.12;3.52;;;18.20;88.90;;;;;;930160;150;27301;-76
2023/05/08 00:44:03;;;;;;;3.70;3.40;;;18.20;89.00;;;;;;930678;151;27316;-76
2023/05/08 00:46:30;;;;;;;3.70;3.40;;;18.10;88.90;;;;;;930449;151;27401;-76
2023/05/08 00:48:56;;;;;;;4.80;3.60;;;18.10;87.80;;;;;;929665;151;27335;-76
2023/05/08 00:51:23;;;;;;;3.83;3.52;;;18.10;86.50;;;;;;930190;150;27390;-76
2023/05/08 00:53:50;;;;;;;3.12;2.92;;;18.10;85.70;;;;;;930031;151;27314;-76
2023/05/08 00:56:16;;;;;;;3.20;3.00;;;18.10;85.20;;;;;;930199;151;27491;-76
2023/05/08 00:58:43;;;;;;;3.95;3.40;;;18.10;84.80;;;;;;929865;151;27370;-76
2023/05/08 01:01:09;;;;;;;4.25;3.95;;;18.00;84.70;;;;;;929338;151;27296;-76
2023/05/08 01:03:36;;;;;;;4.60;4.30;;;18.00;84.80;;;;;;929864;151;27290;-76
2023/05/08 01:06:03;;;;;;;5.65;5.15;;;18.00;84.80;;;;;;930493;150;27467;-76
2023/05/08 01:08:29;;;;;;;5.83;5.33;;;18.00;84.50;;;;;;926816;152;27382;-76
2023/05/08 01:11:01;;;;;;;4.75;4.35;;;18.00;84.20;;;;;;931999;149;27301;-76
2023/05/08 01:13:40;;;;;;;4.55;4.20;;;17.90;83.80;;;;;;922284;152;27427;-76
2023/05/08 01:16:15;;;;;;;4.70;4.30;;;17.90;83.60;;;;;;922376;153;27475;-76
2023/05/08 01:18:42;;;;;;;4.05;3.75;;;17.90;83.40;;;;;;931034;151;27298;-76
2023/05/08 01:21:14;;;;;;;4.50;4.20;;;17.90;83.30;;;;;;937828;152;27313;-76
2023/05/08 01:23:57;;;;;;;4.00;3.70;;;17.80;83.50;;;;;;933140;150;27309;-76
2023/05/08 01:26:25;;;;;;;4.33;4.03;;;17.80;83.70;;;;;;921164;153;27454;-76
2023/05/08 01:29:19;;;;;;;3.77;3.47;;;17.80;83.90;;;;;;914026;155;27367;-76
2023/05/08 01:32:17;;;;;;;4.12;3.83;;;17.80;83.70;;;;;;922173;153;27324;-76
2023/05/08 01:34:46;;;;;;;3.83;3.52;;;17.70;83.20;;;;;;938952;152;27337;-76
2023/05/08 01:37:13;;;;;;;4.10;3.80;;;17.70;83.00;;;;;;936959;151;27321;-76
2023/05/08 01:39:45;;;;;;;3.85;3.55;;;17.70;83.10;;;;;;938402;150;27830;-76
2023/05/08 01:42:17;;;;;;;4.97;4.53;;;17.70;83.40;;;;;;936245;151;27360;-76
2023/05/08 01:44:44;;;;;;;4.45;4.10;;;17.60;83.20;;;;;;937692;152;27344;-76
2023/05/08 01:47:10;;;;;;;4.83;4.42;;;17.60;83.20;;;;;;938123;150;27300;-76
2023/05/08 01:49:40;;;;;;;4.80;4.50;;;17.60;83.30;;;;;;938080;152;27415;-76
2023/05/08 01:52:07;;;;;;;3.95;3.65;;;17.60;83.50;;;;;;935601;152;27371;-76
2023/05/08 01:54:36;;;;;;;4.42;4.05;;;17.60;83.30;;;;;;937586;152;27266;-76
2023/05/08 01:57:03;;;;;;;4.30;4.00;;;17.60;83.50;;;;;;938490;152;27337;-76
2023/05/08 01:59:29;;;;;;;4.65;4.25;;;17.60;84.10;;;;;;938231;150;27329;-76
2023/05/08 02:01:56;;;;;;;4.50;4.20;;;17.60;84.30;;;;;;938555;149;27393;-76
2023/05/08 02:04:22;;;;;;;4.58;4.28;;;17.60;84.70;;;;;;939120;150;27361;-76
2023/05/08 02:06:49;;;;;;;4.60;4.28;;;17.60;85.00;;;;;;938673;152;27361;-76
2023/05/08 02:09:16;;;;;;;3.95;3.65;;;17.60;85.40;;;;;;938972;152;27349;-76
2023/05/08 02:11:42;;;;;;;4.05;3.72;;;17.60;85.80;;;;;;939162;151;27370;-76
2023/05/08 02:14:09;;;;;;;3.83;3.52;;;17.60;86.20;;;;;;947419;148;27348;-76
2023/05/08 02:16:35;;;;;;;4.00;3.67;;;17.60;86.50;;;;;;938618;150;28332;-76
2023/05/08 02:19:02;;;;;;;3.77;3.47;;;17.60;86.80;;;;;;938200;150;27427;-76
2023/05/08 02:21:29;;;;;;;4.00;3.70;;;17.60;86.90;;;;;;947385;148;27444;-76
2023/05/08 02:23:55;;;;;;;4.00;3.70;;;17.60;87.10;;;;;;929658;151;27486;-76
2023/05/08 02:26:22;;;;;;;4.20;3.90;;;17.60;87.40;;;;;;946689;149;27346;-76
2023/05/08 02:28:51;;;;;;;4.45;4.15;;;17.60;87.50;;;;;;931518;151;27811;-76
2023/05/08 02:31:18;;;;;;;4.55;4.15;;;17.60;87.40;;;;;;946919;148;27353;-76
2023/05/08 02:33:44;;;;;;;3.62;3.42;;;17.60;87.20;;;;;;927975;152;27397;-76
2023/05/08 02:36:11;;;;;;;4.22;3.90;;;17.60;86.30;;;;;;946735;148;27373;-76
2023/05/08 02:38:38;;;;;;;3.67;3.37;;;17.50;85.00;;;;;;927429;152;27374;-76
2023/05/08 02:41:04;;;;;;;3.60;3.30;;;17.50;83.90;;;;;;946060;148;27343;-76
2023/05/08 02:43:31;;;;;;;3.47;3.27;;;17.50;83.00;;;;;;927718;151;27403;-76
2023/05/08 02:46:16;;;;;;;4.00;3.70;;;17.50;82.40;;;;;;930086;151;27400;-76
2023/05/08 02:49:03;;;;;;;3.80;3.55;;;17.40;82.00;;;;;;925486;151;27399;-76
2023/05/08 02:51:39;;;;;;;3.90;3.60;;;17.40;81.40;;;;;;947856;148;27350;-76
2023/05/08 02:54:18;;;;;;;4.12;3.83;;;17.40;81.10;;;;;;947400;149;27413;-76
2023/05/08 02:56:47;;;;;;;4.05;3.70;;;17.30;80.80;;;;;;945906;148;27453;-76
2023/05/08 02:59:14;;;;;;;3.85;3.55;;;17.30;80.80;;;;;;910744;151;27369;-76
2023/05/08 03:01:43;;;;;;;3.95;3.65;;;17.20;81.00;;;;;;944502;148;27346;-76
2023/05/08 03:04:09;;;;;;;3.67;3.37;;;17.20;80.70;;;;;;936301;150;27322;-76
2023/05/08 03:06:39;;;;;;;4.00;3.70;;;17.10;80.50;;;;;;926457;151;27794;-76
2023/05/08 03:09:05;;;;;;;4.80;4.40;;;17.10;80.70;;;;;;929332;151;27744;-75
2023/05/08 03:11:35;;;;;;;4.10;3.70;;;17.00;80.80;;;;;;927646;151;27411;-75
2023/05/08 03:14:01;;;;;;;3.77;3.55;;;17.00;80.70;;;;;;946171;151;27502;-75
2023/05/08 03:16:28;;;;;;;4.25;3.85;;;16.90;80.80;;;;;;930728;151;27404;-76
2023/05/08 03:19:00;;;;;;;4.23;3.93;;;16.90;81.40;;;;;;928930;151;27344;-76
2023/05/08 03:21:27;;;;;;;4.05;3.77;;;16.80;81.60;;;;;;947113;148;27344;-76
2023/05/08 03:23:54;;;;;;;4.37;3.97;;;16.80;82.10;;;;;;947491;148;27360;-76
2023/05/08 03:26:21;;;;;;;4.50;4.10;;;16.70;82.20;;;;;;947295;148;27487;-76
2023/05/08 03:28:48;;;;;;;4.33;3.92;;;16.60;82.40;;;;;;935517;150;27775;-76
2023/05/08 03:31:15;;;;;;;4.40;4.10;;;16.50;82.70;;;;;;946031;148;27409;-76
2023/05/08 03:33:41;;;;;;;4.20;3.90;;;16.40;83.10;;;;;;947245;148;27792;-76
2023/05/08 03:36:07;;;;;;;4.40;4.10;;;16.30;83.90;;;;;;946369;148;27429;-76
2023/05/08 03:38:33;;;;;;;4.42;4.12;;;16.20;84.20;;;;;;947242;148;27465;-75
2023/05/08 03:41:00;;;;;;;4.67;4.27;;;16.20;84.50;;;;;;928792;151;27323;-76
2023/05/08 03:43:26;;;;;;;4.40;4.00;;;16.10;85.10;;;;;;946950;148;27412;-76
2023/05/08 03:45:53;;;;;;;4.33;3.93;;;16.00;85.40;;;;;;927668;152;27444;-76
2023/05/08 03:48:21;;;;;;;4.30;4.00;;;16.00;85.90;;;;;;930381;151;27527;-76
2023/05/08 03:50:46;;;;;;;4.40;4.00;;;15.90;86.20;;;;;;946365;148;27408;-76
2023/05/08 03:53:13;;;;;;;4.40;4.10;;;15.90;86.60;;;;;;928136;152;27369;-75
2023/05/08 03:55:40;;;;;;;6.23;4.63;;;15.90;86.80;;;;;;946573;148;27411;-76
2023/05/08 03:58:21;;;;;;;4.92;4.42;;;15.80;87.30;;;;;;945557;151;27453;-76
2023/05/08 04:00:54;;;;;;;4.67;4.33;;;15.90;87.70;;;;;;924013;151;27440;-76
2023/05/08 04:03:48;;;;;;;4.63;4.23;;;15.80;87.70;;;;;;945410;148;27404;-75
2023/05/08 04:06:39;;;;;;;4.50;4.13;;;15.80;87.90;;;;;;947526;148;27313;-76
2023/05/08 04:09:05;;;;;;;5.20;4.33;;;15.80;87.90;;;;;;893141;157;27448;-76
2023/05/08 04:11:35;;;;;;;4.67;4.28;;;15.80;88.10;;;;;;927285;149;27352;-76
2023/05/08 04:14:01;;;;;;;4.60;4.30;;;15.70;88.50;;;;;;939396;149;27405;-76
2023/05/08 04:16:28;;;;;;;4.83;4.50;;;15.70;88.50;;;;;;935557;149;27319;-76
2023/05/08 04:18:55;;;;;;;4.37;3.97;;;15.70;88.70;;;;;;934448;150;27403;-76
2023/05/08 04:21:21;;;;;;;4.57;4.17;;;15.70;88.50;;;;;;932375;149;27688;-76
2023/05/08 04:23:48;;;;;;;5.13;4.63;;;15.70;89.00;;;;;;911661;152;27387;-76
2023/05/08 04:26:14;;;;;;;4.93;4.53;;;15.70;89.30;;;;;;918034;152;27489;-76
2023/05/08 04:28:41;;;;;;;5.17;4.77;;;15.70;89.50;;;;;;912374;153;27358;-76
2023/05/08 04:31:08;;;;;;;4.93;4.53;;;15.70;89.60;;;;;;926722;152;27521;-76
2023/05/08 04:33:34;;;;;;;4.70;4.40;;;15.60;89.90;;;;;;927185;152;27390;-76
2023/05/08 04:36:01;;;;;;;4.90;4.50;;;15.60;90.10;;;;;;927108;152;27402;-76
2023/05/08 04:38:27;;;;;;;5.57;4.30;;;15.60;90.40;;;;;;927068;152;27422;-76
2023/05/08 04:40:54;;;;;;;4.93;4.63;;;15.60;90.50;;;;;;927348;151;27810;-76
2023/05/08 04:43:21;;;;;;;4.63;4.33;;;15.60;90.50;;;;;;927251;152;27460;-76
2023/05/08 04:45:47;;;;;;;4.97;4.57;;;15.60;90.60;;;;;;926886;152;27396;-76
2023/05/08 04:48:14;;;;;;;5.13;4.73;;;15.60;90.40;;;;;;927530;152;27411;-76
2023/05/08 04:50:40;;;;;;;4.93;4.53;;;15.60;90.50;;;;;;911680;153;27373;-76
2023/05/08 04:53:07;;;;;;;4.73;4.33;;;15.60;90.50;;;;;;934653;149;27372;-76
2023/05/08 04:55:33;;;;;;;5.47;5.07;;;15.60;90.60;;;;;;923672;152;27469;-76
2023/05/08 04:58:00;;;;;;;5.33;4.87;;;15.60;90.50;;;;;;912636;153;27495;-76
2023/05/08 05:00:27;;;;;;;4.97;4.58;;;15.60;90.60;;;;;;934956;149;27357;-76
2023/05/08 05:02:53;;;;;;;5.33;4.80;;;15.60;90.70;;;;;;912989;152;27351;-76
2023/05/08 05:05:20;;;;;;;5.47;5.07;;;15.60;90.80;;;;;;919706;152;27296;-76
2023/05/08 05:07:46;;;;;;;5.20;4.80;;;15.60;90.80;;;;;;913361;153;27383;-75
2023/05/08 05:10:13;;;;;;;5.57;5.00;;;15.60;90.80;;;;;;921836;152;27433;-76
2023/05/08 05:12:40;;;;;;;5.13;4.73;;;15.70;90.80;;;;;;918873;152;27804;-76
2023/05/08 05:15:06;;;;;;;5.47;4.97;;;15.70;90.80;;;;;;911625;153;27431;-76
2023/05/08 05:17:33;;;;;;;5.50;5.00;;;15.80;90.90;;;;;;918517;152;27468;-76
2023/05/08 05:19:59;;;;;;;4.67;4.28;;;15.80;90.90;;;;;;933967;149;27370;-76
2023/05/08 05:22:27;;;;;;;4.97;4.60;;;15.80;91.10;;;;;;934621;150;27322;-76
2023/05/08 05:24:53;;;;;;;4.30;4.00;;;15.80;91.10;;;;;;934273;150;27329;-76
2023/05/08 05:27:19;;;;;;;5.10;4.70;;;15.80;91.10;;;;;;934098;149;27334;-76
2023/05/08 05:29:46;;;;;;;5.20;4.80;;;15.80;91.30;;;;;;923659;152;27376;-76
2023/05/08 05:32:12;;;;;;;5.37;4.90;;;15.80;91.40;;;;;;911498;153;27427;-76
2023/05/08 05:34:39;;;;;;;5.10;4.70;;;15.80;91.70;;;;;;934038;149;27314;-76
2023/05/08 05:37:06;;;;;;;5.00;4.60;;;15.80;91.80;;;;;;912344;153;27340;-76
2023/05/08 05:39:32;;;;;;;5.08;4.67;;;15.80;91.90;;;;;;927336;151;27412;-76
2023/05/08 05:41:59;;;;;;;5.12;4.72;;;15.80;91.90;;;;;;927149;152;27382;-76
2023/05/08 05:44:25;;;;;;;5.97;5.47;;;15.80;91.90;;;;;;927335;152;27315;-76
2023/05/08 05:46:52;;;;;;;5.70;5.20;;;15.70;92.00;;;;;;912687;153;27349;-76
2023/05/08 05:49:18;;;;;;;5.73;5.30;;;15.70;92.20;;;;;;935701;149;27322;-76
2023/05/08 05:51:45;;;;;;;6.50;6.00;;;15.70;92.30;;;;;;934769;150;27368;-76
2023/05/08 05:54:13;;;;;;;5.85;5.40;;;15.70;92.50;;;;;;918301;152;27436;-76
2023/05/08 05:56:38;;;;;;;5.45;5.05;;;15.70;92.70;;;;;;911924;152;27367;-76
2023/05/08 05:59:05;;;;;;;5.53;5.13;;;15.70;92.90;;;;;;918006;152;27376;-76
2023/05/08 06:01:31;;;;;;;6.10;5.60;;;15.70;93.00;;;;;;926885;151;27674;-76
2023/05/08 06:03:58;;;;;;;5.60;5.20;;;15.70;93.10;;;;;;928219;152;27403;-76
2023/05/08 06:06:25;;;;;;;5.73;5.23;;;15.70;93.50;;;;;;926684;151;27461;-76
2023/05/08 06:08:51;;;;;;;5.60;5.07;;;15.70;93.60;;;;;;912198;153;27490;-76
2023/05/08 06:11:18;;;;;;;5.15;4.75;;;15.70;93.80;;;;;;934916;149;27306;-75
2023/05/08 06:13:44;;;;;;;5.70;5.30;;;15.80;94.00;;;;;;934533;150;27369;-75
2023/05/08 06:16:11;;;;;;;5.53;5.03;;;15.80;94.00;;;;;;918010;152;27444;-75
2023/05/08 06:18:38;;;;;;;5.33;4.83;;;15.90;94.40;;;;;;911885;153;27428;-75
2023/05/08 06:21:04;;;;;;;5.40;5.00;;;15.90;94.70;;;;;;934885;149;27421;-75
2023/05/08 06:23:31;;;;;;;5.60;5.12;;;16.00;94.90;;;;;;935015;150;27457;-74
2023/05/08 06:25:57;;;;;;;5.67;5.25;;;16.10;95.20;;;;;;935695;149;27374;-76
2023/05/08 06:28:24;;;;;;;5.17;4.78;;;16.20;95.20;;;;;;934136;149;27328;-76
2023/05/08 06:30:50;;;;;;;5.25;4.75;;;16.30;95.40;;;;;;911307;152;27429;-76
2023/05/08 06:33:17;;;;;;;5.50;5.00;;;16.30;95.50;;;;;;934889;149;27404;-76
2023/05/08 06:35:47;;;;;;;5.92;5.15;;;16.50;95.50;;;;;;934538;150;27369;-76
2023/05/08 06:38:13;;;;;;;5.05;4.65;;;16.60;95.30;;;;;;935399;149;27378;-76
2023/05/08 06:40:43;;;;;;;5.12;4.67;;;16.70;94.60;;;;;;934008;149;27354;-76
2023/05/08 06:43:09;;;;;;;5.00;4.60;;;16.80;94.20;;;;;;934490;149;27423;-76
2023/05/08 06:45:36;;;;;;;4.75;4.42;;;16.80;94.30;;;;;;935069;149;27466;-76
2023/05/08 06:48:02;;;;;;;5.40;4.90;;;16.90;93.50;;;;;;934355;149;27263;-75
2023/05/08 06:50:30;;;;;;;4.83;4.42;;;16.90;92.80;;;;;;935259;148;27296;-75
2023/05/08 06:52:56;;;;;;;5.30;4.83;;;17.00;92.00;;;;;;918186;152;27340;-76
2023/05/08 06:55:22;;;;;;;4.72;4.40;;;17.00;92.00;;;;;;918432;152;27370;-76
2023/05/08 06:57:49;;;;;;;4.97;4.53;;;17.00;91.80;;;;;;919064;152;27380;-76
2023/05/08 07:00:15;;;;;;;5.33;4.83;;;16.90;91.30;;;;;;934404;149;27358;-75
2023/05/08 07:02:42;;;;;;;6.58;4.97;;;16.90;91.40;;;;;;934632;149;27339;-75
2023/05/08 07:05:09;;;;;;;4.75;4.45;;;16.90;91.30;;;;;;918708;152;27446;-75
2023/05/08 07:07:35;;;;;;;5.12;4.72;;;16.90;91.50;;;;;;912075;153;27369;-76
2023/05/08 07:10:02;;;;;;;4.70;4.40;;;16.90;91.20;;;;;;926657;152;27500;-76
2023/05/08 07:12:28;;;;;;;5.20;4.75;;;16.90;91.40;;;;;;932356;149;27406;-76
2023/05/08 07:14:55;;;;;;;5.67;5.20;;;16.90;91.60;;;;;;927137;151;27300;-76
2023/05/08 07:17:22;;;;;;;5.40;4.90;;;16.90;91.50;;;;;;926855;152;27490;-76
2023/05/08 07:19:51;;;;;;;5.17;4.78;;;16.90;91.30;;;;;;926044;151;27402;-75
2023/05/08 07:22:18;;;;;;;5.00;4.60;;;16.90;91.40;;;;;;935443;149;27428;-75
2023/05/08 07:24:45;;;;;;;5.20;4.80;;;16.90;91.50;;;;;;911307;152;27346;-76
2023/05/08 07:27:13;;;;;;;4.92;4.58;;;16.90;91.60;;;;;;917922;152;27379;-76
2023/05/08 07:29:40;;;;;;;5.47;4.97;;;17.00;91.50;;;;;;918658;152;27452;-75
2023/05/08 07:32:04;;;;;;;4.92;4.55;;;17.00;91.40;;;;;;932247;149;27399;-76
2023/05/08 07:34:31;;;;;;;5.03;4.62;;;17.10;91.20;;;;;;926971;152;27320;-75
2023/05/08 07:36:57;;;;;;;4.50;4.20;;;17.10;91.00;;;;;;926894;152;27440;-76
2023/05/08 07:39:24;;;;;;;4.72;4.42;;;17.10;90.90;;;;;;927413;151;27388;-75
2023/05/08 07:41:51;;;;;;;5.03;4.62;;;17.20;90.90;;;;;;911641;153;27503;-75
2023/05/08 07:44:17;;;;;;;4.87;4.47;;;17.20;90.80;;;;;;934358;149;27623;-76
2023/05/08 07:46:44;;;;;;;4.92;4.40;;;17.20;90.60;;;;;;912255;152;27450;-76
2023/05/08 07:49:10;;;;;;;4.90;4.50;;;17.30;90.80;;;;;;934851;149;27319;-76
2023/05/08 07:51:38;;;;;;;5.10;4.65;;;17.30;90.50;;;;;;934358;149;27357;-75
2023/05/08 07:54:04;;;;;;;4.87;4.58;;;17.40;90.30;;;;;;919222;152;27523;-76
2023/05/08 07:56:30;;;;;;;4.70;4.30;;;17.40;90.10;;;;;;912337;153;27316;-76
2023/05/08 07:58:57;;;;;;;4.42;4.10;;;17.40;90.10;;;;;;934692;149;27314;-76
2023/05/08 08:01:23;;;;;;;4.80;4.40;;;17.50;89.70;;;;;;918077;152;27382;-75
2023/05/08 08:03:50;;;;;;;5.00;4.65;;;17.50;89.80;;;;;;934121;150;27420;-75
2023/05/08 08:06:17;;;;;;;4.70;4.30;;;17.60;90.00;;;;;;933765;149;27359;-75
2023/05/08 08:08:43;;;;;;;5.03;4.65;;;17.60;89.90;;;;;;910726;152;27379;-75
2023/05/08 08:11:10;;;;;;;5.08;4.67;;;17.60;89.90;;;;;;917699;152;27476;-75
2023/05/08 08:13:36;;;;;;;5.12;4.72;;;17.60;90.00;;;;;;919814;152;27294;-76
2023/05/08 08:16:03;;;;;;;5.08;4.67;;;17.70;90.00;;;;;;937473;149;27382;-75
2023/05/08 08:18:29;;;;;;;5.42;5.03;;;17.70;89.90;;;;;;927502;151;27443;-75
2023/05/08 08:20:56;;;;;;;4.40;4.10;;;17.60;89.60;;;;;;927823;151;27378;-75
2023/05/08 08:23:23;;;;;;;4.95;4.55;;;17.60;90.30;;;;;;927611;151;27403;-76
2023/05/08 08:25:50;;;;;;;5.10;4.70;;;17.60;90.60;;;;;;929772;151;27436;-75
2023/05/08 08:28:16;;;;;;;5.05;4.65;;;17.60;90.80;;;;;;931881;150;27437;-75
2023/05/08 08:30:42;;;;;;;5.35;4.90;;;17.50;91.00;;;;;;929577;151;27404;-76
2023/05/08 08:33:09;;;;;;;4.62;4.28;;;17.50;91.20;;;;;;936923;150;27496;-75
2023/05/08 08:35:36;;;;;;;5.55;5.05;;;17.50;91.60;;;;;;946830;149;27343;-75
2023/05/08 08:38:02;;;;;;;5.50;4.97;;;17.40;91.70;;;;;;947002;148;27340;-75
2023/05/08 08:40:29;;;;;;;4.90;4.60;;;17.40;92.00;;;;;;945191;148;27356;-75
2023/05/08 08:42:55;;;;;;;4.85;4.47;;;17.40;92.50;;;;;;946275;151;27356;-75
2023/05/08 08:45:22;;;;;;;5.87;5.28;;;17.40;92.50;;;;;;946095;151;28065;-75
2023/05/08 08:47:48;;;;;;;5.60;5.10;;;17.40;92.30;;;;;;945852;148;27794;-75
2023/05/08 08:50:15;;;;;;;5.03;4.62;;;17.40;92.30;;;;;;945108;148;27305;-75
2023/05/08 08:52:48;;;;;;;5.30;4.80;;;17.40;92.60;;;;;;926775;151;27353;-75
2023/05/08 08:55:17;;;;;;;4.47;4.17;;;17.40;92.80;;;;;;945444;150;27364;-75
2023/05/08 08:57:44;;;;;;;5.53;5.03;;;17.50;93.50;;;;;;947611;148;27406;-75
2023/05/08 09:00:10;;;;;;;5.90;5.40;;;17.60;93.80;;;;;;944409;148;27412;-75
2023/05/08 09:02:37;;;;;;;5.30;4.90;;;17.70;94.10;;;;;;930340;151;27381;-75
2023/05/08 09:05:03;;;;;;;5.42;4.92;;;17.80;94.00;;;;;;931144;151;27365;-75
2023/05/08 09:07:30;;;;;;;5.55;5.15;;;18.00;93.70;;;;;;947670;150;27339;-75
2023/05/08 09:09:57;;;;;;;5.37;4.97;;;18.20;93.90;;;;;;948415;150;27445;-75
2023/05/08 09:12:23;;;;;;;5.42;4.78;;;18.30;93.40;;;;;;929203;151;27323;-75
2023/05/08 09:14:50;;;;;;;5.67;5.17;;;18.50;92.90;;;;;;929087;151;27394;-75
2023/05/08 09:17:17;;;;;;;4.50;4.10;;;18.60;91.90;;;;;;927321;151;27515;-75
2023/05/08 09:19:43;;;;;;;4.75;4.42;;;18.80;91.60;;;;;;912356;153;27361;-75
2023/05/08 09:22:10;;;;;;;5.70;5.20;;;18.90;91.60;;;;;;934980;149;27462;-75
2023/05/08 09:24:55;;;;;;;4.87;4.47;;;19.10;91.60;;;;;;923059;152;27311;-75
2023/05/08 09:27:21;;;;;;;4.90;4.50;;;19.20;91.60;;;;;;900149;152;27403;-75
2023/05/08 09:30:05;;;;;;;4.40;4.10;;;19.40;91.30;;;;;;935316;149;27419;-76
2023/05/08 09:32:32;;;;;;;4.15;3.85;;;19.50;90.60;;;;;;933644;149;27363;-75
2023/05/08 09:34:59;;;;;;;4.40;4.00;;;19.70;90.50;;;;;;921325;152;27305;-75
2023/05/08 09:37:25;;;;;;;4.78;4.35;;;19.80;89.60;;;;;;926093;151;27495;-75
2023/05/08 09:39:52;;;;;;;5.10;4.70;;;20.00;88.20;;;;;;926769;152;27318;-75
2023/05/08 09:42:18;;;;;;;4.70;4.30;;;20.10;86.70;;;;;;925969;151;27489;-75
2023/05/08 09:44:54;;;;;;;4.70;4.30;;;20.20;86.00;;;;;;927288;152;27356;-76
2023/05/08 09:47:20;;;;;;;4.42;4.12;;;20.30;85.00;;;;;;927364;152;27394;-76
2023/05/08 09:50:05;;;;;;;4.42;4.12;;;20.40;83.90;;;;;;926875;152;27327;-75
2023/05/08 09:52:31;;;;;;;4.20;3.90;;;20.40;82.70;;;;;;926169;151;27331;-75
2023/05/08 09:55:03;;;;;;;4.33;4.03;;;20.40;82.20;;;;;;933584;150;27336;-75
2023/05/08 09:57:30;;;;;;;4.67;4.37;;;20.50;81.90;;;;;;932877;149;27369;-75
2023/05/08 10:00:00;;;;;;;4.47;4.12;;;20.40;81.20;;;;;;917310;153;27323;-74
2023/05/08 10:02:26;;;;;;;4.50;4.20;;;20.50;80.70;;;;;;914816;153;27478;-74
2023/05/08 10:04:53;;;;;;;4.50;4.20;;;20.50;80.80;;;;;;935480;149;27434;-75
2023/05/08 10:07:31;;;;;;;4.22;3.92;;;20.50;80.50;;;;;;912375;153;27346;-75
2023/05/08 10:09:58;;;;;;;4.15;3.85;;;20.50;80.50;;;;;;934987;150;27373;-75
2023/05/08 10:12:24;;;;;;;4.30;4.00;;;20.50;80.40;;;;;;933493;150;27330;-74
2023/05/08 10:14:51;;;;;;;4.65;4.25;;;20.60;80.20;;;;;;934103;150;27366;-75
2023/05/08 10:17:17;;;;;;;5.03;4.62;;;20.60;80.00;;;;;;935151;149;27394;-74
2023/05/08 10:19:44;;;;;;;4.67;4.33;;;20.70;79.70;;;;;;933616;150;27405;-75
2023/05/08 10:22:10;;;;;;;4.72;4.42;;;20.70;79.40;;;;;;932660;149;27337;-75
2023/05/08 10:24:37;;;;;;;4.65;4.25;;;20.70;79.40;;;;;;911699;153;27297;-75
2023/05/08 10:27:04;;;;;;;4.72;4.28;;;20.80;79.30;;;;;;927232;151;27487;-74
2023/05/08 10:29:49;;;;;;;4.75;4.35;;;20.80;79.10;;;;;;926369;152;27484;-75
2023/05/08 10:32:15;;;;;;;4.97;4.47;;;20.80;78.40;;;;;;934301;149;27427;-74
2023/05/08 10:34:42;;;;;;;4.53;4.17;;;20.90;78.00;;;;;;934381;150;27388;-75
2023/05/08 10:37:11;;;;;;;5.90;5.40;;;20.90;77.80;;;;;;911115;152;27421;-75
2023/05/08 10:39:38;;;;;;;4.75;4.45;;;20.90;78.80;;;;;;911859;152;27273;-75
2023/05/08 10:42:04;;;;;;;5.17;4.78;;;20.90;78.40;;;;;;918658;152;27308;-75
2023/05/08 10:44:31;;;;;;;5.42;5.03;;;21.00;78.90;;;;;;923768;152;27362;-75
2023/05/08 10:46:57;;;;;;;5.17;4.78;;;21.00;79.10;;;;;;912178;153;27431;-75
2023/05/08 10:49:43;;;;;;;4.95;4.55;;;21.00;80.00;;;;;;933555;149;27396;-75
2023/05/08 10:52:12;;;;;;;5.25;4.85;;;21.00;79.80;;;;;;916767;152;27478;-75
2023/05/08 10:54:38;;;;;;;5.30;4.80;;;21.10;80.10;;;;;;933706;149;27393;-76
2023/05/08 10:57:08;;;;;;;5.03;4.62;;;21.10;80.10;;;;;;912789;153;27368;-76
2023/05/08 10:59:35;;;;;;;5.30;4.80;;;21.20;80.10;;;;;;934420;149;27358;-76
2023/05/08 11:02:04;;;;;;;5.50;5.10;;;21.20;80.10;;;;;;934839;149;27847;-76
2023/05/08 11:04:30;;;;;;;5.35;4.95;;;21.20;80.10;;;;;;918572;152;27431;-76
2023/05/08 11:06:57;;;;;;;5.20;4.72;;;21.20;80.30;;;;;;933704;149;27420;-76
2023/05/08 11:09:26;;;;;;;5.83;5.33;;;21.30;81.10;;;;;;918596;152;27431;-76
2023/05/08 11:12:08;;;;;;;5.67;5.17;;;21.30;81.40;;;;;;932702;149;27285;-76
2023/05/08 11:14:37;;;;;;;4.87;4.35;;;21.40;82.30;;;;;;931961;149;27297;-76
2023/05/08 11:17:04;;;;;;;6.15;5.65;;;21.50;82.30;;;;;;912037;153;27447;-76
2023/05/08 11:19:30;;;;;;;5.65;5.25;;;21.60;81.70;;;;;;926504;151;27362;-76
2023/05/08 11:22:22;;;;;;;4.87;4.58;;;21.70;81.60;;;;;;934077;149;27447;-76
2023/05/08 11:24:59;;;;;;;5.03;4.65;;;21.80;81.10;;;;;;918006;152;27351;-76
2023/05/08 11:27:41;;;;;;;5.03;4.70;;;21.90;80.70;;;;;;912041;152;27379;-76
2023/05/08 11:30:33;;;;;;;5.12;4.72;;;22.10;80.10;;;;;;912327;153;27352;-76
2023/05/08 11:33:07;;;;;;;4.97;4.58;;;22.20;79.40;;;;;;915662;153;27370;-76
2023/05/08 11:35:46;;;;;;;4.78;4.37;;;22.40;78.60;;;;;;918900;153;27375;-76
2023/05/08 11:38:28;;;;;;;5.37;4.87;;;22.50;77.80;;;;;;918355;153;27452;-76
2023/05/08 11:40:54;;;;;;;5.00;4.60;;;22.60;77.10;;;;;;934783;149;27363;-76
2023/05/08 11:43:34;;;;;;;5.25;4.70;;;22.70;77.00;;;;;;919552;152;27486;-76
2023/05/08 11:45:59;;;;;;;4.85;4.45;;;22.80;76.60;;;;;;918165;152;27425;-76
2023/05/08 11:48:26;;;;;;;4.62;4.33;;;23.00;77.20;;;;;;911467;152;27299;-76
2023/05/08 11:50:53;;;;;;;5.45;5.00;;;23.10;77.20;;;;;;913048;153;27358;-76
2023/05/08 11:53:20;;;;;;;4.83;4.42;;;23.30;76.40;;;;;;935786;149;27444;-76
2023/05/08 11:55:49;;;;;;;4.65;4.35;;;23.50;75.80;;;;;;911710;152;27361;-76
2023/05/08 11:58:15;;;;;;;4.37;4.08;;;23.70;75.00;;;;;;918635;152;27350;-76
2023/05/08 12:00:45;;;;;;;4.72;4.42;;;23.90;74.90;;;;;;922373;152;27303;-76
2023/05/08 12:03:08;;;;;;;5.03;4.53;;;24.10;73.80;;;;;;911854;153;27498;-76
2023/05/08 12:05:35;;;;;;;4.67;4.28;;;24.30;73.30;;;;;;934436;149;27357;-76
2023/05/08 12:08:03;;;;;;;4.47;4.17;;;24.40;72.80;;;;;;918512;152;27324;-76
2023/05/08 12:10:28;;;;;;;4.92;4.50;;;24.60;72.30;;;;;;912496;153;27466;-76
2023/05/08 12:12:55;;;;;;;4.60;4.30;;;24.70;71.40;;;;;;935118;149;27365;-76
2023/05/08 12:15:21;;;;;;;4.80;4.40;;;24.90;70.90;;;;;;919300;152;27472;-76
2023/05/08 12:17:48;;;;;;;4.62;4.22;;;25.10;70.00;;;;;;919805;152;27380;-76
2023/05/08 12:20:15;;;;;;;4.78;4.37;;;25.20;69.10;;;;;;918601;151;27359;-76
2023/05/08 12:22:41;;;;;;;4.97;4.58;;;25.30;68.50;;;;;;935095;150;27374;-76
2023/05/08 12:25:11;;;;;;;4.85;4.50;;;25.40;67.90;;;;;;936006;150;27420;-76
2023/05/08 12:27:37;;;;;;;4.83;4.42;;;25.50;67.70;;;;;;934530;150;27343;-76
2023/05/08 12:30:09;;;;;;;5.08;4.70;;;25.50;67.60;;;;;;952060;148;27347;-76
2023/05/08 12:32:36;;;;;;;4.75;4.45;;;25.70;67.60;;;;;;935143;150;27372;-76
2023/05/08 12:35:03;;;;;;;3.90;3.52;;;25.80;67.20;;;;;;940291;150;27527;-76
2023/05/08 12:37:29;;;;;;;5.17;4.78;;;25.90;66.90;;;;;;933360;151;27423;-76
2023/05/08 12:39:56;;;;;;;4.58;4.28;;;26.00;66.40;;;;;;935053;150;27352;-76
2023/05/08 12:42:22;;;;;;;4.50;4.20;;;26.10;66.30;;;;;;936081;150;27385;-76
2023/05/08 12:44:52;;;;;;;4.50;4.20;;;26.20;65.60;;;;;;932981;150;27362;-76
2023/05/08 12:47:19;;;;;;;4.78;4.17;;;26.30;65.40;;;;;;936341;150;27358;-76
2023/05/08 12:49:48;;;;;;;4.67;4.28;;;26.40;65.30;;;;;;950780;148;27646;-76
2023/05/08 12:52:12;;;;;;;4.97;4.62;;;26.50;64.30;;;;;;951654;147;27344;-76